Wind From: 11-12-2017 06:00 Until: 12-12-2017 06:00 warning for: Wind Level: Orange info button

Power and phone distribution networks may be disrupted for relatively long periods., Roofs and chimneys can be damaged. , Tree branches may break. , Vehicles can be deported. , Traffic may be disrupted, particularly on secondary roads in forest areas. Limit your trips. , Limit your speed in highway driving, especially if you drive a vehicle or hitch sensitive to wind. , Do not go for walks in forests or along the coast., In town, be vigilant against possible falling objects., Do not work on roofs and do not touch any electrical line fallen on the ground., Store or secure sensitive objects to wind or likely to be damaged., Always install power generators outside buildings. 


Meteo18 Weather Cam more information Meteo18 Weather Cam


Thunder radar more information blitzortung!


Rain radar more information rain snow radar


Visit our other weather sites:

Template documentation
and downloads

And another site



Weather Underground History page Text

Daily Summary for October 25, 2017 Units:  Both    English   Metric
« Previous Day
Next Day »
Daily Weekly Monthly Yearly Custom
  High: Low: Average:
Temperature: 72 °F /  22.2 °C 53.4 °F /  11.9 °C 59.9 °F /  15.5 °C
Dew Point: 60.6 °F /  15.9 °C 52.5 °F /  11.4 °C 56.5 °F /  13.6 °C
Humidity: 97 % 67 % 89 %
Wind Speed: 7 mph /  11.3 km/h - 0.9 mph /  1.4 km/h
Wind Gust: 7 mph /  11.3 km/h - -
Wind:- - South
Pressure: 30.3 in /  1026.3 hPa 30.3 in /  1024.3 hPa -
Precipitation: 0.01 in /  0.3 mm    
Historical Graphs
 
 
Tabular Data for October 25, 2017
Time Temperature Dew Point Pressure Wind Wind Speed Wind Gust Humidity Rainfall Rate (Hourly)
00:02 57.4 °F /  14.1 °C 56.5 °F /  13.6 °C 30.3 in /  1026.0 hPa Calm     97 % 0 in /  0.0 mm
00:12 57.4 °F /  14.1 °C 56.5 °F /  13.6 °C 30.3 in /  1026.0 hPa Calm   1 mph /  1.6 km/h 97 % 0 in /  0.0 mm
00:17 57.4 °F /  14.1 °C 56.5 °F /  13.6 °C 30.3 in /  1026.3 hPa SSW 1 mph /  1.6 km/h 3 mph /  4.8 km/h 97 % 0 in /  0.0 mm
00:22 57.4 °F /  14.1 °C 56.5 °F /  13.6 °C 30.3 in /  1026.3 hPa Calm   3 mph /  4.8 km/h 97 % 0 in /  0.0 mm
00:27 57.2 °F /  14.0 °C 56.3 °F /  13.5 °C 30.3 in /  1026.0 hPa SSE 2 mph /  3.2 km/h 3 mph /  4.8 km/h 97 % 0 in /  0.0 mm
00:32 57 °F /  13.9 °C 56.1 °F /  13.4 °C 30.3 in /  1026.0 hPa SE 2 mph /  3.2 km/h 4 mph /  6.4 km/h 97 % 0 in /  0.0 mm
00:37 57 °F /  13.9 °C 56.1 °F /  13.4 °C 30.3 in /  1025.6 hPa South 2 mph /  3.2 km/h 4 mph /  6.4 km/h 97 % 0 in /  0.0 mm
00:42 57 °F /  13.9 °C 56.1 °F /  13.4 °C 30.3 in /  1025.6 hPa SSE 1 mph /  1.6 km/h 4 mph /  6.4 km/h 97 % 0 in /  0.0 mm
00:52 57 °F /  13.9 °C 56.1 °F /  13.4 °C 30.3 in /  1026.0 hPa Calm   3 mph /  4.8 km/h 97 % 0 in /  0.0 mm
00:57 57 °F /  13.9 °C 56.1 °F /  13.4 °C 30.3 in /  1026.0 hPa South 1 mph /  1.6 km/h 2 mph /  3.2 km/h 97 % 0 in /  0.0 mm
01:02 57 °F /  13.9 °C 56.1 °F /  13.4 °C 30.3 in /  1025.6 hPa Calm   2 mph /  3.2 km/h 97 % 0 in /  0.0 mm
01:12 57 °F /  13.9 °C 56.1 °F /  13.4 °C 30.3 in /  1025.6 hPa SW 1 mph /  1.6 km/h 2 mph /  3.2 km/h 97 % 0 in /  0.0 mm
01:22 57 °F /  13.9 °C 56.1 °F /  13.4 °C 30.3 in /  1025.6 hPa SSE 1 mph /  1.6 km/h 3 mph /  4.8 km/h 97 % 0 in /  0.0 mm
01:27 56.8 °F /  13.8 °C 55.9 °F /  13.3 °C 30.3 in /  1025.6 hPa South 2 mph /  3.2 km/h 7 mph /  11.3 km/h 97 % 0 in /  0.0 mm
01:32 56.8 °F /  13.8 °C 55.9 °F /  13.3 °C 30.3 in /  1025.6 hPa SW 2 mph /  3.2 km/h 7 mph /  11.3 km/h 97 % 0 in /  0.0 mm
01:42 56.8 °F /  13.8 °C 55.9 °F /  13.3 °C 30.3 in /  1025.3 hPa SE 1 mph /  1.6 km/h 6 mph /  9.7 km/h 97 % 0.01 in /  0.3 mm
01:47 56.8 °F /  13.8 °C 55.9 °F /  13.3 °C 30.3 in /  1025.3 hPa SE 4 mph /  6.4 km/h 5 mph /  8.0 km/h 97 % 0.01 in /  0.3 mm
01:52 56.8 °F /  13.8 °C 55.9 °F /  13.3 °C 30.3 in /  1025.6 hPa South 2 mph /  3.2 km/h 5 mph /  8.0 km/h 97 % 0.01 in /  0.3 mm
01:57 56.8 °F /  13.8 °C 55.9 °F /  13.3 °C 30.3 in /  1025.6 hPa SE 2 mph /  3.2 km/h 6 mph /  9.7 km/h 97 % 0.01 in /  0.3 mm
02:02 56.8 °F /  13.8 °C 55.9 °F /  13.3 °C 30.3 in /  1025.6 hPa SW 4 mph /  6.4 km/h 6 mph /  9.7 km/h 97 % 0.01 in /  0.3 mm
02:07 56.8 °F /  13.8 °C 55.9 °F /  13.3 °C 30.3 in /  1025.6 hPa SSW 3 mph /  4.8 km/h 7 mph /  11.3 km/h 97 % 0.01 in /  0.3 mm
02:12 56.8 °F /  13.8 °C 55.9 °F /  13.3 °C 30.3 in /  1025.6 hPa SW 2 mph /  3.2 km/h 7 mph /  11.3 km/h 97 % 0.01 in /  0.3 mm
02:17 56.8 °F /  13.8 °C 55.9 °F /  13.3 °C 30.3 in /  1025.6 hPa SSW 1 mph /  1.6 km/h 7 mph /  11.3 km/h 97 % 0.01 in /  0.3 mm
02:22 56.8 °F /  13.8 °C 55.9 °F /  13.3 °C 30.3 in /  1025.6 hPa Calm   7 mph /  11.3 km/h 97 % 0.01 in /  0.3 mm
02:32 56.7 °F /  13.7 °C 55.8 °F /  13.2 °C 30.3 in /  1025.6 hPa SE 3 mph /  4.8 km/h 4 mph /  6.4 km/h 97 % 0.01 in /  0.3 mm
02:37 56.7 °F /  13.7 °C 55.8 °F /  13.2 °C 30.3 in /  1025.6 hPa SSW 3 mph /  4.8 km/h 6 mph /  9.7 km/h 97 % 0 in /  0.0 mm
02:42 56.7 °F /  13.7 °C 55.8 °F /  13.2 °C 30.3 in /  1025.6 hPa South 1 mph /  1.6 km/h 6 mph /  9.7 km/h 97 % 0 in /  0.0 mm
02:52 56.7 °F /  13.7 °C 55.8 °F /  13.2 °C 30.3 in /  1025.3 hPa SE 1 mph /  1.6 km/h 6 mph /  9.7 km/h 97 % 0 in /  0.0 mm
02:57 56.7 °F /  13.7 °C 55.8 °F /  13.2 °C 30.3 in /  1025.3 hPa SE 2 mph /  3.2 km/h 5 mph /  8.0 km/h 97 % 0 in /  0.0 mm
03:02 56.7 °F /  13.7 °C 55.8 °F /  13.2 °C 30.3 in /  1025.3 hPa SE 3 mph /  4.8 km/h 5 mph /  8.0 km/h 97 % 0 in /  0.0 mm
03:07 56.5 °F /  13.6 °C 55.6 °F /  13.1 °C 30.3 in /  1025.3 hPa SSE 1 mph /  1.6 km/h 4 mph /  6.4 km/h 97 % 0 in /  0.0 mm
03:12 56.5 °F /  13.6 °C 55.6 °F /  13.1 °C 30.3 in /  1025.3 hPa South 3 mph /  4.8 km/h 4 mph /  6.4 km/h 97 % 0 in /  0.0 mm
03:17 56.5 °F /  13.6 °C 55.6 °F /  13.1 °C 30.3 in /  1025.6 hPa SSW 1 mph /  1.6 km/h 6 mph /  9.7 km/h 97 % 0 in /  0.0 mm
03:27 56.5 °F /  13.6 °C 55.6 °F /  13.1 °C 30.3 in /  1025.6 hPa SE 7 mph /  11.3 km/h 7 mph /  11.3 km/h 97 % 0 in /  0.0 mm
03:32 56.5 °F /  13.6 °C 55.6 °F /  13.1 °C 30.3 in /  1025.6 hPa SE 2 mph /  3.2 km/h 6 mph /  9.7 km/h 97 % 0 in /  0.0 mm
03:37 56.3 °F /  13.5 °C 55.2 °F /  12.9 °C 30.3 in /  1025.6 hPa ESE 2 mph /  3.2 km/h 7 mph /  11.3 km/h 96 % 0 in /  0.0 mm
03:42 56.1 °F /  13.4 °C 55 °F /  12.8 °C 30.3 in /  1025.6 hPa SE 1 mph /  1.6 km/h 7 mph /  11.3 km/h 96 % 0 in /  0.0 mm
03:47 56.1 °F /  13.4 °C 55 °F /  12.8 °C 30.3 in /  1025.3 hPa Calm   7 mph /  11.3 km/h 96 % 0 in /  0.0 mm
03:52 56.1 °F /  13.4 °C 55.2 °F /  12.9 °C 30.3 in /  1025.3 hPa SSW 1 mph /  1.6 km/h 7 mph /  11.3 km/h 97 % 0 in /  0.0 mm
04:02 56.1 °F /  13.4 °C 55.2 °F /  12.9 °C 30.3 in /  1025.3 hPa SSE 1 mph /  1.6 km/h 5 mph /  8.0 km/h 97 % 0 in /  0.0 mm
04:07 56.1 °F /  13.4 °C 55.2 °F /  12.9 °C 30.3 in /  1025.3 hPa SSE 2 mph /  3.2 km/h 6 mph /  9.7 km/h 97 % 0 in /  0.0 mm
04:12 56.1 °F /  13.4 °C 55.2 °F /  12.9 °C 30.3 in /  1024.9 hPa ESE 1 mph /  1.6 km/h 6 mph /  9.7 km/h 97 % 0 in /  0.0 mm
04:17 56.1 °F /  13.4 °C 55.2 °F /  12.9 °C 30.3 in /  1024.9 hPa ESE 2 mph /  3.2 km/h 6 mph /  9.7 km/h 97 % 0 in /  0.0 mm
04:22 56.1 °F /  13.4 °C 55.2 °F /  12.9 °C 30.3 in /  1024.9 hPa ESE 3 mph /  4.8 km/h 6 mph /  9.7 km/h 97 % 0 in /  0.0 mm
04:32 56.1 °F /  13.4 °C 55.2 °F /  12.9 °C 30.3 in /  1024.9 hPa SE 3 mph /  4.8 km/h 6 mph /  9.7 km/h 97 % 0 in /  0.0 mm
04:42 56.1 °F /  13.4 °C 55.2 °F /  12.9 °C 30.3 in /  1024.9 hPa SSE 2 mph /  3.2 km/h 6 mph /  9.7 km/h 97 % 0 in /  0.0 mm
04:47 56.1 °F /  13.4 °C 55.2 °F /  12.9 °C 30.3 in /  1024.9 hPa SE 1 mph /  1.6 km/h 5 mph /  8.0 km/h 97 % 0 in /  0.0 mm
04:52 56.1 °F /  13.4 °C 55.2 °F /  12.9 °C 30.3 in /  1024.9 hPa SSE 1 mph /  1.6 km/h 5 mph /  8.0 km/h 97 % 0 in /  0.0 mm
04:57 56.1 °F /  13.4 °C 55.2 °F /  12.9 °C 30.3 in /  1024.9 hPa Calm   4 mph /  6.4 km/h 97 % 0 in /  0.0 mm
05:02 56.1 °F /  13.4 °C 55.2 °F /  12.9 °C 30.3 in /  1024.9 hPa SE 1 mph /  1.6 km/h 4 mph /  6.4 km/h 97 % 0 in /  0.0 mm
05:12 56.1 °F /  13.4 °C 55.2 °F /  12.9 °C 30.3 in /  1024.9 hPa SE 1 mph /  1.6 km/h 6 mph /  9.7 km/h 97 % 0 in /  0.0 mm
05:17 56.1 °F /  13.4 °C 55.2 °F /  12.9 °C 30.3 in /  1024.9 hPa Calm   6 mph /  9.7 km/h 97 % 0 in /  0.0 mm
05:22 56.1 °F /  13.4 °C 55.2 °F /  12.9 °C 30.3 in /  1024.6 hPa Calm   6 mph /  9.7 km/h 97 % 0 in /  0.0 mm
05:32 56.1 °F /  13.4 °C 55.2 °F /  12.9 °C 30.3 in /  1024.6 hPa SE 4 mph /  6.4 km/h 7 mph /  11.3 km/h 97 % 0 in /  0.0 mm
05:42 55.9 °F /  13.3 °C 55 °F /  12.8 °C 30.3 in /  1024.6 hPa SE 1 mph /  1.6 km/h 5 mph /  8.0 km/h 97 % 0 in /  0.0 mm
05:47 55.9 °F /  13.3 °C 55 °F /  12.8 °C 30.3 in /  1024.6 hPa South 2 mph /  3.2 km/h 6 mph /  9.7 km/h 97 % 0 in /  0.0 mm
05:52 55.9 °F /  13.3 °C 55 °F /  12.8 °C 30.3 in /  1024.6 hPa Calm   6 mph /  9.7 km/h 97 % 0 in /  0.0 mm
06:02 55.9 °F /  13.3 °C 55 °F /  12.8 °C 30.3 in /  1024.6 hPa SE 1 mph /  1.6 km/h 6 mph /  9.7 km/h 97 % 0 in /  0.0 mm
06:12 55.8 °F /  13.2 °C 54.9 °F /  12.7 °C 30.3 in /  1024.6 hPa SE 1 mph /  1.6 km/h 5 mph /  8.0 km/h 97 % 0 in /  0.0 mm
06:22 55.8 °F /  13.2 °C 54.9 °F /  12.7 °C 30.3 in /  1024.6 hPa SSW 2 mph /  3.2 km/h 3 mph /  4.8 km/h 97 % 0 in /  0.0 mm
06:27 55.8 °F /  13.2 °C 54.9 °F /  12.7 °C 30.3 in /  1024.6 hPa SSE 2 mph /  3.2 km/h 4 mph /  6.4 km/h 97 % 0 in /  0.0 mm
06:32 55.8 °F /  13.2 °C 54.9 °F /  12.7 °C 30.3 in /  1024.6 hPa ESE 1 mph /  1.6 km/h 4 mph /  6.4 km/h 97 % 0 in /  0.0 mm
06:37 55.6 °F /  13.1 °C 54.7 °F /  12.6 °C 30.3 in /  1024.6 hPa Calm   3 mph /  4.8 km/h 97 % 0 in /  0.0 mm
06:42 55.6 °F /  13.1 °C 54.7 °F /  12.6 °C 30.3 in /  1024.3 hPa Calm   3 mph /  4.8 km/h 97 % 0 in /  0.0 mm
06:47 55.6 °F /  13.1 °C 54.7 °F /  12.6 °C 30.3 in /  1024.3 hPa Calm   4 mph /  6.4 km/h 97 % 0 in /  0.0 mm
06:52 55.6 °F /  13.1 °C 54.7 °F /  12.6 °C 30.3 in /  1024.6 hPa Calm   4 mph /  6.4 km/h 97 % 0 in /  0.0 mm
07:02 55.2 °F /  12.9 °C 54.1 °F /  12.3 °C 30.3 in /  1024.3 hPa Calm   3 mph /  4.8 km/h 96 % 0 in /  0.0 mm
07:07 55 °F /  12.8 °C 54 °F /  12.2 °C 30.3 in /  1024.6 hPa Calm   1 mph /  1.6 km/h 96 % 0 in /  0.0 mm
07:12 54.9 °F /  12.7 °C 53.8 °F /  12.1 °C 30.3 in /  1024.6 hPa Calm   1 mph /  1.6 km/h 96 % 0 in /  0.0 mm
07:17 54.7 °F /  12.6 °C 53.6 °F /  12.0 °C 30.3 in /  1024.6 hPa Calm   2 mph /  3.2 km/h 96 % 0 in /  0.0 mm
07:22 54.7 °F /  12.6 °C 53.8 °F /  12.1 °C 30.3 in /  1024.6 hPa Calm   2 mph /  3.2 km/h 97 % 0 in /  0.0 mm
07:32 54.5 °F /  12.5 °C 53.6 °F /  12.0 °C 30.3 in /  1024.6 hPa Calm   1 mph /  1.6 km/h 97 % 0 in /  0.0 mm
07:42 54.3 °F /  12.4 °C 53.4 °F /  11.9 °C 30.3 in /  1024.6 hPa Calm   1 mph /  1.6 km/h 97 % 0 in /  0.0 mm
07:52 54.1 °F /  12.3 °C 53.2 °F /  11.8 °C 30.3 in /  1024.6 hPa Calm   1 mph /  1.6 km/h 97 % 0 in /  0.0 mm
07:57 54.1 °F /  12.3 °C 53.2 °F /  11.8 °C 30.3 in /  1024.6 hPa Calm     97 % 0 in /  0.0 mm
08:02 54.1 °F /  12.3 °C 53.2 °F /  11.8 °C 30.3 in /  1024.9 hPa Calm     97 % 0 in /  0.0 mm
08:07 54.1 °F /  12.3 °C 53.2 °F /  11.8 °C 30.3 in /  1024.6 hPa Calm     97 % 0 in /  0.0 mm
08:12 54.1 °F /  12.3 °C 53.2 °F /  11.8 °C 30.3 in /  1024.9 hPa Calm     97 % 0 in /  0.0 mm
08:17 54 °F /  12.2 °C 53.1 °F /  11.7 °C 30.3 in /  1024.9 hPa Calm     97 % 0 in /  0.0 mm
08:22 53.8 °F /  12.1 °C 52.9 °F /  11.6 °C 30.3 in /  1024.9 hPa Calm     97 % 0 in /  0.0 mm
08:32 53.4 °F /  11.9 °C 52.5 °F /  11.4 °C 30.3 in /  1024.9 hPa Calm     97 % 0 in /  0.0 mm
08:42 53.4 °F /  11.9 °C 52.5 °F /  11.4 °C 30.3 in /  1024.9 hPa Calm     97 % 0 in /  0.0 mm
08:47 53.4 °F /  11.9 °C 52.5 °F /  11.4 °C 30.3 in /  1024.9 hPa Calm     97 % 0 in /  0.0 mm
08:52 53.4 °F /  11.9 °C 52.5 °F /  11.4 °C 30.3 in /  1024.9 hPa Calm     97 % 0 in /  0.0 mm
08:57 53.4 °F /  11.9 °C 52.5 °F /  11.4 °C 30.3 in /  1024.9 hPa Calm     97 % 0 in /  0.0 mm
09:02 53.6 °F /  12.0 °C 52.7 °F /  11.5 °C 30.3 in /  1024.9 hPa Calm     97 % 0 in /  0.0 mm
09:12 53.8 °F /  12.1 °C 52.9 °F /  11.6 °C 30.3 in /  1025.3 hPa Calm     97 % 0 in /  0.0 mm
09:17 54 °F /  12.2 °C 53.1 °F /  11.7 °C 30.3 in /  1024.9 hPa Calm     97 % 0 in /  0.0 mm
09:22 54.3 °F /  12.4 °C 53.4 °F /  11.9 °C 30.3 in /  1025.3 hPa Calm     97 % 0 in /  0.0 mm
09:32 54.9 °F /  12.7 °C 54 °F /  12.2 °C 30.3 in /  1024.9 hPa Calm     97 % 0 in /  0.0 mm
09:42 55.2 °F /  12.9 °C 54.3 °F /  12.4 °C 30.3 in /  1025.3 hPa Calm   1 mph /  1.6 km/h 97 % 0 in /  0.0 mm
09:52 55.9 °F /  13.3 °C 55 °F /  12.8 °C 30.3 in /  1024.9 hPa Calm   1 mph /  1.6 km/h 97 % 0 in /  0.0 mm
10:02 56.1 °F /  13.4 °C 54.7 °F /  12.6 °C 30.3 in /  1024.9 hPa SSE 2 mph /  3.2 km/h 2 mph /  3.2 km/h 95 % 0 in /  0.0 mm
10:12 56.1 °F /  13.4 °C 54.7 °F /  12.6 °C 30.3 in /  1024.9 hPa Calm   2 mph /  3.2 km/h 95 % 0 in /  0.0 mm
10:17 56.5 °F /  13.6 °C 55 °F /  12.8 °C 30.3 in /  1024.9 hPa Calm   5 mph /  8.0 km/h 95 % 0 in /  0.0 mm
10:22 56.8 °F /  13.8 °C 55.4 °F /  13.0 °C 30.3 in /  1024.9 hPa Calm   5 mph /  8.0 km/h 95 % 0 in /  0.0 mm
10:32 56.7 °F /  13.7 °C 54.7 °F /  12.6 °C 30.3 in /  1025.3 hPa South 1 mph /  1.6 km/h 5 mph /  8.0 km/h 93 % 0 in /  0.0 mm
10:42 56.8 °F /  13.8 °C 54.9 °F /  12.7 °C 30.3 in /  1025.3 hPa Calm   4 mph /  6.4 km/h 93 % 0 in /  0.0 mm
10:47 57.2 °F /  14.0 °C 55.2 °F /  12.9 °C 30.3 in /  1025.3 hPa South 2 mph /  3.2 km/h 4 mph /  6.4 km/h 93 % 0 in /  0.0 mm
10:52 57.6 °F /  14.2 °C 55.2 °F /  12.9 °C 30.3 in /  1025.3 hPa SSW 1 mph /  1.6 km/h 4 mph /  6.4 km/h 92 % 0 in /  0.0 mm
11:02 58.3 °F /  14.6 °C 55.9 °F /  13.3 °C 30.3 in /  1025.3 hPa SSE 3 mph /  4.8 km/h 4 mph /  6.4 km/h 92 % 0 in /  0.0 mm
11:07 58.3 °F /  14.6 °C 55.4 °F /  13.0 °C 30.3 in /  1025.3 hPa SW 2 mph /  3.2 km/h 5 mph /  8.0 km/h 90 % 0 in /  0.0 mm
11:12 58.5 °F /  14.7 °C 55.6 °F /  13.1 °C 30.3 in /  1025.3 hPa SW 3 mph /  4.8 km/h 5 mph /  8.0 km/h 90 % 0 in /  0.0 mm
11:17 58.6 °F /  14.8 °C 55.8 °F /  13.2 °C 30.3 in /  1025.6 hPa Calm   6 mph /  9.7 km/h 90 % 0 in /  0.0 mm
11:22 59.2 °F /  15.1 °C 56.3 °F /  13.5 °C 30.3 in /  1025.6 hPa SE 1 mph /  1.6 km/h 6 mph /  9.7 km/h 90 % 0 in /  0.0 mm
11:32 59.7 °F /  15.4 °C 56.1 °F /  13.4 °C 30.3 in /  1025.6 hPa SSW 3 mph /  4.8 km/h 5 mph /  8.0 km/h 88 % 0 in /  0.0 mm
11:52 61.2 °F /  16.2 °C 57 °F /  13.9 °C 30.3 in /  1025.6 hPa SSE 1 mph /  1.6 km/h 3 mph /  4.8 km/h 86 % 0 in /  0.0 mm
11:57 61.3 °F /  16.3 °C 56.5 °F /  13.6 °C 30.3 in /  1025.6 hPa SE 2 mph /  3.2 km/h 4 mph /  6.4 km/h 84 % 0 in /  0.0 mm
12:02 61.5 °F /  16.4 °C 57.4 °F /  14.1 °C 30.3 in /  1025.6 hPa South 3 mph /  4.8 km/h 4 mph /  6.4 km/h 86 % 0 in /  0.0 mm
12:07 61.7 °F /  16.5 °C 56.8 °F /  13.8 °C 30.3 in /  1025.3 hPa ENE 1 mph /  1.6 km/h 4 mph /  6.4 km/h 84 % 0 in /  0.0 mm
12:12 62.2 °F /  16.8 °C 57.4 °F /  14.1 °C 30.3 in /  1025.3 hPa SSW 4 mph /  6.4 km/h 4 mph /  6.4 km/h 84 % 0 in /  0.0 mm
12:17 62.1 °F /  16.7 °C 56.8 °F /  13.8 °C 30.3 in /  1025.3 hPa SSW 2 mph /  3.2 km/h 4 mph /  6.4 km/h 83 % 0 in /  0.0 mm
12:22 62.4 °F /  16.9 °C 57.6 °F /  14.2 °C 30.3 in /  1025.3 hPa SSW 2 mph /  3.2 km/h 4 mph /  6.4 km/h 84 % 0 in /  0.0 mm
12:32 62.6 °F /  17.0 °C 57.4 °F /  14.1 °C 30.3 in /  1025.6 hPa East 1 mph /  1.6 km/h 4 mph /  6.4 km/h 83 % 0 in /  0.0 mm
12:42 63 °F /  17.2 °C 57.7 °F /  14.3 °C 30.3 in /  1025.6 hPa Calm   6 mph /  9.7 km/h 83 % 0 in /  0.0 mm
12:47 63 °F /  17.2 °C 57.4 °F /  14.1 °C 30.3 in /  1025.6 hPa SSE 1 mph /  1.6 km/h 5 mph /  8.0 km/h 82 % 0 in /  0.0 mm
12:52 63.1 °F /  17.3 °C 57.9 °F /  14.4 °C 30.3 in /  1025.6 hPa Calm   5 mph /  8.0 km/h 83 % 0 in /  0.0 mm
13:02 63 °F /  17.2 °C 57 °F /  13.9 °C 30.3 in /  1025.6 hPa Calm   4 mph /  6.4 km/h 81 % 0 in /  0.0 mm
13:12 63.3 °F /  17.4 °C 57.4 °F /  14.1 °C 30.3 in /  1025.6 hPa SSW 2 mph /  3.2 km/h 4 mph /  6.4 km/h 81 % 0 in /  0.0 mm
13:17 63.5 °F /  17.5 °C 57.6 °F /  14.2 °C 30.3 in /  1025.6 hPa SSW 2 mph /  3.2 km/h 4 mph /  6.4 km/h 81 % 0 in /  0.0 mm
13:22 63.7 °F /  17.6 °C 57.7 °F /  14.3 °C 30.3 in /  1025.6 hPa SSW 1 mph /  1.6 km/h 4 mph /  6.4 km/h 81 % 0 in /  0.0 mm
13:32 64.6 °F /  18.1 °C 58.3 °F /  14.6 °C 30.3 in /  1025.3 hPa Calm   4 mph /  6.4 km/h 80 % 0 in /  0.0 mm
13:42 65.1 °F /  18.4 °C 58.5 °F /  14.7 °C 30.3 in /  1025.3 hPa SW 3 mph /  4.8 km/h 3 mph /  4.8 km/h 79 % 0 in /  0.0 mm
13:52 65.3 °F /  18.5 °C 58.3 °F /  14.6 °C 30.3 in /  1025.3 hPa Calm   4 mph /  6.4 km/h 78 % 0 in /  0.0 mm
14:02 65.8 °F /  18.8 °C 58.8 °F /  14.9 °C 30.3 in /  1025.3 hPa Calm   4 mph /  6.4 km/h 78 % 0 in /  0.0 mm
14:12 66 °F /  18.9 °C 59 °F /  15.0 °C 30.3 in /  1024.9 hPa SW 2 mph /  3.2 km/h 4 mph /  6.4 km/h 78 % 0 in /  0.0 mm
14:17 66 °F /  18.9 °C 58.6 °F /  14.8 °C 30.3 in /  1024.9 hPa SSE 2 mph /  3.2 km/h 6 mph /  9.7 km/h 77 % 0 in /  0.0 mm
14:22 66.7 °F /  19.3 °C 59.7 °F /  15.4 °C 30.3 in /  1024.9 hPa SW 2 mph /  3.2 km/h 6 mph /  9.7 km/h 78 % 0 in /  0.0 mm
14:32 66.9 °F /  19.4 °C 59.2 °F /  15.1 °C 30.3 in /  1024.9 hPa SSW 2 mph /  3.2 km/h 6 mph /  9.7 km/h 76 % 0 in /  0.0 mm
14:42 67.1 °F /  19.5 °C 59.4 °F /  15.2 °C 30.3 in /  1024.9 hPa SSW 2 mph /  3.2 km/h 5 mph /  8.0 km/h 76 % 0 in /  0.0 mm
14:52 67.3 °F /  19.6 °C 58.6 °F /  14.8 °C 30.3 in /  1024.9 hPa South 3 mph /  4.8 km/h 5 mph /  8.0 km/h 74 % 0 in /  0.0 mm
15:02 67.6 °F /  19.8 °C 59.4 °F /  15.2 °C 30.3 in /  1024.6 hPa South 2 mph /  3.2 km/h 6 mph /  9.7 km/h 75 % 0 in /  0.0 mm
15:07 68.2 °F /  20.1 °C 59.5 °F /  15.3 °C 30.3 in /  1024.6 hPa WSW 3 mph /  4.8 km/h 6 mph /  9.7 km/h 74 % 0 in /  0.0 mm
15:12 68.4 °F /  20.2 °C 60.1 °F /  15.6 °C 30.3 in /  1024.6 hPa SSW 2 mph /  3.2 km/h 6 mph /  9.7 km/h 75 % 0 in /  0.0 mm
15:22 68.4 °F /  20.2 °C 59.4 °F /  15.2 °C 30.3 in /  1024.6 hPa SSW 1 mph /  1.6 km/h 5 mph /  8.0 km/h 73 % 0 in /  0.0 mm
15:32 69.3 °F /  20.7 °C 59.5 °F /  15.3 °C 30.3 in /  1024.9 hPa SW 3 mph /  4.8 km/h 5 mph /  8.0 km/h 71 % 0 in /  0.0 mm
15:42 68.9 °F /  20.5 °C 59.9 °F /  15.5 °C 30.3 in /  1024.9 hPa Calm   4 mph /  6.4 km/h 73 % 0 in /  0.0 mm
15:47 69.6 °F /  20.9 °C 60.3 °F /  15.7 °C 30.3 in /  1024.9 hPa Calm   4 mph /  6.4 km/h 72 % 0 in /  0.0 mm
15:52 69.6 °F /  20.9 °C 59.7 °F /  15.4 °C 30.3 in /  1024.9 hPa SSW 2 mph /  3.2 km/h 4 mph /  6.4 km/h 71 % 0 in /  0.0 mm
15:57 69.4 °F /  20.8 °C 59.5 °F /  15.3 °C 30.3 in /  1024.9 hPa Calm   5 mph /  8.0 km/h 71 % 0 in /  0.0 mm
16:02 70 °F /  21.1 °C 59.7 °F /  15.4 °C 30.3 in /  1024.6 hPa Calm   5 mph /  8.0 km/h 70 % 0 in /  0.0 mm
16:12 70.5 °F /  21.4 °C 60.3 °F /  15.7 °C 30.3 in /  1024.9 hPa SW 1 mph /  1.6 km/h 4 mph /  6.4 km/h 70 % 0 in /  0.0 mm
16:17 70.5 °F /  21.4 °C 59.9 °F /  15.5 °C 30.3 in /  1024.6 hPa WSW 1 mph /  1.6 km/h 4 mph /  6.4 km/h 69 % 0 in /  0.0 mm
16:22 70.5 °F /  21.4 °C 59.9 °F /  15.5 °C 30.3 in /  1024.6 hPa Calm   4 mph /  6.4 km/h 69 % 0 in /  0.0 mm
16:32 70.9 °F /  21.6 °C 59.7 °F /  15.4 °C 30.3 in /  1024.9 hPa Calm   4 mph /  6.4 km/h 68 % 0 in /  0.0 mm
16:37 70.7 °F /  21.5 °C 59.5 °F /  15.3 °C 30.3 in /  1024.9 hPa WSW 1 mph /  1.6 km/h 3 mph /  4.8 km/h 68 % 0 in /  0.0 mm
16:42 70.7 °F /  21.5 °C 60.1 °F /  15.6 °C 30.3 in /  1024.9 hPa Calm   3 mph /  4.8 km/h 69 % 0 in /  0.0 mm
16:47 70.9 °F /  21.6 °C 59.7 °F /  15.4 °C 30.3 in /  1024.9 hPa Calm   3 mph /  4.8 km/h 68 % 0 in /  0.0 mm
16:52 70.9 °F /  21.6 °C 60.3 °F /  15.7 °C 30.3 in /  1024.6 hPa Calm   3 mph /  4.8 km/h 69 % 0 in /  0.0 mm
16:57 71.4 °F /  21.9 °C 60.3 °F /  15.7 °C 30.3 in /  1024.6 hPa Calm   2 mph /  3.2 km/h 68 % 0 in /  0.0 mm
17:02 71.4 °F /  21.9 °C 60.3 °F /  15.7 °C 30.3 in /  1024.9 hPa Calm   2 mph /  3.2 km/h 68 % 0 in /  0.0 mm
17:12 71.6 °F /  22.0 °C 60.1 °F /  15.6 °C 30.3 in /  1024.6 hPa Calm   2 mph /  3.2 km/h 67 % 0 in /  0.0 mm
17:17 71.4 °F /  21.9 °C 60.3 °F /  15.7 °C 30.3 in /  1024.6 hPa Calm   3 mph /  4.8 km/h 68 % 0 in /  0.0 mm
17:27 71.8 °F /  22.1 °C 60.6 °F /  15.9 °C 30.3 in /  1024.9 hPa Calm   3 mph /  4.8 km/h 68 % 0 in /  0.0 mm
17:32 72 °F /  22.2 °C 60.4 °F /  15.8 °C 30.3 in /  1024.9 hPa Calm   3 mph /  4.8 km/h 67 % 0 in /  0.0 mm
17:42 71.1 °F /  21.7 °C 60.4 °F /  15.8 °C 30.3 in /  1024.9 hPa Calm   2 mph /  3.2 km/h 69 % 0 in /  0.0 mm
17:47 71.1 °F /  21.7 °C 60.4 °F /  15.8 °C 30.3 in /  1024.9 hPa Calm   2 mph /  3.2 km/h 69 % 0 in /  0.0 mm
17:52 71.1 °F /  21.7 °C 60.4 °F /  15.8 °C 30.3 in /  1024.9 hPa Calm   2 mph /  3.2 km/h 69 % 0 in /  0.0 mm
18:12 71.6 °F /  22.0 °C 60.1 °F /  15.6 °C 30.3 in /  1024.9 hPa Calm   1 mph /  1.6 km/h 67 % 0 in /  0.0 mm
18:17 71.2 °F /  21.8 °C 60.1 °F /  15.6 °C 30.3 in /  1024.9 hPa Calm   1 mph /  1.6 km/h 68 % 0 in /  0.0 mm
18:22 70.3 °F /  21.3 °C 60.1 °F /  15.6 °C 30.3 in /  1024.9 hPa East 1 mph /  1.6 km/h 1 mph /  1.6 km/h 70 % 0 in /  0.0 mm
18:27 69.3 °F /  20.7 °C 59.9 °F /  15.5 °C 30.3 in /  1024.9 hPa East 1 mph /  1.6 km/h 1 mph /  1.6 km/h 72 % 0 in /  0.0 mm
18:32 68.4 °F /  20.2 °C 59.7 °F /  15.4 °C 30.3 in /  1024.9 hPa Calm   2 mph /  3.2 km/h 74 % 0 in /  0.0 mm
18:37 67.6 °F /  19.8 °C 59.4 °F /  15.2 °C 30.3 in /  1024.9 hPa Calm   2 mph /  3.2 km/h 75 % 0 in /  0.0 mm
18:42 67.3 °F /  19.6 °C 59.9 °F /  15.5 °C 30.3 in /  1024.9 hPa Calm   1 mph /  1.6 km/h 77 % 0 in /  0.0 mm
18:57 64.8 °F /  18.2 °C 59.2 °F /  15.1 °C 30.3 in /  1024.9 hPa Calm     82 % 0 in /  0.0 mm
19:02 64.4 °F /  18.0 °C 58.8 °F /  14.9 °C 30.3 in /  1024.9 hPa Calm     82 % 0 in /  0.0 mm
19:12 63.7 °F /  17.6 °C 58.8 °F /  14.9 °C 30.3 in /  1024.9 hPa Calm     84 % 0 in /  0.0 mm
19:17 63.1 °F /  17.3 °C 58.6 °F /  14.8 °C 30.3 in /  1024.9 hPa Calm     85 % 0 in /  0.0 mm
19:22 62.8 °F /  17.1 °C 58.5 °F /  14.7 °C 30.3 in /  1024.9 hPa Calm     86 % 0 in /  0.0 mm
19:27 62.4 °F /  16.9 °C 58.1 °F /  14.5 °C 30.3 in /  1025.3 hPa East 1 mph /  1.6 km/h   86 % 0 in /  0.0 mm
19:32 62.2 °F /  16.8 °C 58.3 °F /  14.6 °C 30.3 in /  1025.3 hPa NNE 1 mph /  1.6 km/h   87 % 0 in /  0.0 mm
19:37 62.2 °F /  16.8 °C 58.3 °F /  14.6 °C 30.3 in /  1025.3 hPa Calm   2 mph /  3.2 km/h 87 % 0 in /  0.0 mm
19:42 62.2 °F /  16.8 °C 58.3 °F /  14.6 °C 30.3 in /  1025.3 hPa Calm   2 mph /  3.2 km/h 87 % 0 in /  0.0 mm
19:47 61.9 °F /  16.6 °C 57.9 °F /  14.4 °C 30.3 in /  1025.3 hPa NNW 1 mph /  1.6 km/h 1 mph /  1.6 km/h 87 % 0 in /  0.0 mm
19:52 61.3 °F /  16.3 °C 58.1 °F /  14.5 °C 30.3 in /  1025.3 hPa Calm   1 mph /  1.6 km/h 89 % 0 in /  0.0 mm
19:57 60.8 °F /  16.0 °C 57.6 °F /  14.2 °C 30.3 in /  1025.3 hPa NW 1 mph /  1.6 km/h 1 mph /  1.6 km/h 89 % 0 in /  0.0 mm
20:02 60.4 °F /  15.8 °C 57.6 °F /  14.2 °C 30.3 in /  1025.3 hPa NW 1 mph /  1.6 km/h 1 mph /  1.6 km/h 90 % 0 in /  0.0 mm
20:12 60.1 °F /  15.6 °C 57.4 °F /  14.1 °C 30.3 in /  1025.3 hPa Calm   1 mph /  1.6 km/h 91 % 0 in /  0.0 mm
20:17 59.5 °F /  15.3 °C 56.8 °F /  13.8 °C 30.3 in /  1025.3 hPa NW 1 mph /  1.6 km/h 1 mph /  1.6 km/h 91 % 0 in /  0.0 mm
20:22 59.4 °F /  15.2 °C 57 °F /  13.9 °C 30.3 in /  1024.9 hPa Calm   1 mph /  1.6 km/h 92 % 0 in /  0.0 mm
20:32 59.5 °F /  15.3 °C 57.6 °F /  14.2 °C 30.3 in /  1025.3 hPa Calm   1 mph /  1.6 km/h 93 % 0 in /  0.0 mm
20:42 58.6 °F /  14.8 °C 56.7 °F /  13.7 °C 30.3 in /  1025.3 hPa NW 1 mph /  1.6 km/h 1 mph /  1.6 km/h 93 % 0 in /  0.0 mm
20:47 58.8 °F /  14.9 °C 57 °F /  13.9 °C 30.3 in /  1025.3 hPa North 1 mph /  1.6 km/h 1 mph /  1.6 km/h 94 % 0 in /  0.0 mm
20:52 59 °F /  15.0 °C 57.2 °F /  14.0 °C 30.3 in /  1025.3 hPa Calm   1 mph /  1.6 km/h 94 % 0 in /  0.0 mm
20:57 59.2 °F /  15.1 °C 57.4 °F /  14.1 °C 30.3 in /  1025.3 hPa Calm   1 mph /  1.6 km/h 94 % 0 in /  0.0 mm
21:02 58.8 °F /  14.9 °C 56.8 °F /  13.8 °C 30.3 in /  1025.3 hPa Calm   1 mph /  1.6 km/h 93 % 0 in /  0.0 mm
21:12 58.5 °F /  14.7 °C 56.7 °F /  13.7 °C 30.3 in /  1025.3 hPa Calm   1 mph /  1.6 km/h 94 % 0 in /  0.0 mm
21:17 58.3 °F /  14.6 °C 56.5 °F /  13.6 °C 30.3 in /  1025.3 hPa Calm   1 mph /  1.6 km/h 94 % 0 in /  0.0 mm
21:22 58.3 °F /  14.6 °C 56.5 °F /  13.6 °C 30.3 in /  1025.3 hPa Calm   1 mph /  1.6 km/h 94 % 0 in /  0.0 mm
21:27 58.1 °F /  14.5 °C 56.3 °F /  13.5 °C 30.3 in /  1025.3 hPa Calm   1 mph /  1.6 km/h 94 % 0 in /  0.0 mm
21:32 58.1 °F /  14.5 °C 56.3 °F /  13.5 °C 30.3 in /  1025.3 hPa Calm   1 mph /  1.6 km/h 94 % 0 in /  0.0 mm
21:42 57.9 °F /  14.4 °C 56.1 °F /  13.4 °C 30.3 in /  1025.3 hPa North 2 mph /  3.2 km/h 2 mph /  3.2 km/h 94 % 0 in /  0.0 mm
21:52 57.7 °F /  14.3 °C 55.9 °F /  13.3 °C 30.3 in /  1025.3 hPa Calm   2 mph /  3.2 km/h 94 % 0 in /  0.0 mm
21:57 57.2 °F /  14.0 °C 55.4 °F /  13.0 °C 30.3 in /  1025.3 hPa Calm   2 mph /  3.2 km/h 94 % 0 in /  0.0 mm
22:02 57.2 °F /  14.0 °C 55.8 °F /  13.2 °C 30.3 in /  1025.3 hPa Calm   2 mph /  3.2 km/h 95 % 0 in /  0.0 mm
22:12 57.6 °F /  14.2 °C 56.1 °F /  13.4 °C 30.3 in /  1025.6 hPa Calm   2 mph /  3.2 km/h 95 % 0 in /  0.0 mm
22:17 57.7 °F /  14.3 °C 56.3 °F /  13.5 °C 30.3 in /  1025.6 hPa Calm   2 mph /  3.2 km/h 95 % 0 in /  0.0 mm
22:22 57.4 °F /  14.1 °C 55.6 °F /  13.1 °C 30.3 in /  1025.6 hPa Calm   2 mph /  3.2 km/h 94 % 0 in /  0.0 mm
22:27 57.2 °F /  14.0 °C 55.8 °F /  13.2 °C 30.3 in /  1025.6 hPa Calm     95 % 0 in /  0.0 mm
22:32 57 °F /  13.9 °C 55.2 °F /  12.9 °C 30.3 in /  1025.6 hPa Calm     94 % 0 in /  0.0 mm
22:37 56.5 °F /  13.6 °C 54.9 °F /  12.7 °C 30.3 in /  1025.6 hPa Calm     94 % 0 in /  0.0 mm
22:44 56.5 °F /  13.6 °C 55 °F /  12.8 °C 30.3 in /  1025.6 hPa Calm     95 % 0 in /  0.0 mm
22:52 56.5 °F /  13.6 °C 55 °F /  12.8 °C 30.3 in /  1026.0 hPa Calm     95 % 0 in /  0.0 mm
23:02 56.1 °F /  13.4 °C 54.7 °F /  12.6 °C 30.3 in /  1026.0 hPa Calm     95 % 0 in /  0.0 mm
23:07 55.9 °F /  13.3 °C 54.5 °F /  12.5 °C 30.3 in /  1026.0 hPa Calm   1 mph /  1.6 km/h 95 % 0 in /  0.0 mm
23:12 55.8 °F /  13.2 °C 54.3 °F /  12.4 °C 30.3 in /  1026.0 hPa NNE 1 mph /  1.6 km/h 1 mph /  1.6 km/h 95 % 0 in /  0.0 mm
23:17 55.6 °F /  13.1 °C 54.5 °F /  12.5 °C 30.3 in /  1026.0 hPa NNE 2 mph /  3.2 km/h 2 mph /  3.2 km/h 96 % 0 in /  0.0 mm
23:22 55.9 °F /  13.3 °C 54.9 °F /  12.7 °C 30.3 in /  1026.0 hPa North 1 mph /  1.6 km/h 2 mph /  3.2 km/h 96 % 0 in /  0.0 mm
23:32 55.9 °F /  13.3 °C 54.9 °F /  12.7 °C 30.3 in /  1026.0 hPa Calm   2 mph /  3.2 km/h 96 % 0 in /  0.0 mm
23:42 55.2 °F /  12.9 °C 53.8 °F /  12.1 °C 30.3 in /  1026.0 hPa WNW 1 mph /  1.6 km/h 2 mph /  3.2 km/h 95 % 0 in /  0.0 mm
23:52 55 °F /  12.8 °C 54 °F /  12.2 °C 30.3 in /  1026.0 hPa Calm   2 mph /  3.2 km/h 96 % 0 in /  0.0 mm
23:57 55.4 °F /  13.0 °C 54.3 °F /  12.4 °C 30.3 in /  1026.0 hPa Calm   2 mph /  3.2 km/h 96 % 0 in /  0.0 mm
Meteo18
Compliments of Weather Underground - 4 mb

Script developed by  Jim McMurry - jmcmurry@mwt.net Adapted for the template by  Wim van der Kuil - Leuven-Template.eu

You find our weather info also at:

European Weather Network

Weather Underground

Equipment we use:

Weather-station
Davis Vue

Weather-program
Meteohub

Weather-server
Raspberry PI 2 B+

Provider
1 and 1

Davis Vue

Meteohub

Raspberry PI 2 B+

1 and 1